Time;durP1;ratioP1;P1;durP2;ratioP2;P2;SDS_P1;SDS_P2;PMS_P1;PMS_P2;Temp;Humidity;BMP_temperature;BMP_pressure;BME280_temperature;BME280_humidity;BME280_pressure;Samples;Min_cycle;Max_cycle;Signal;HPM_P1;HPM_P2
2023/09/14 00:00:49;;;;;;;1.08;0.40;;;14.80;77.30;;;;;;5066950;28;20051;-81
2023/09/14 00:03:16;;;;;;;0.50;0.30;;;14.80;69.30;;;;;;5051361;28;20060;-81
2023/09/14 00:05:45;;;;;;;0.68;0.40;;;14.80;89.70;;;;;;5051554;28;20140;-82
2023/09/14 00:08:13;;;;;;;1.27;0.52;;;14.80;78.20;;;;;;5051786;28;20043;-82
2023/09/14 00:10:40;;;;;;;0.60;0.45;;;14.80;93.60;;;;;;5051298;28;20052;-81
2023/09/14 00:13:07;;;;;;;1.50;0.95;;;14.80;85.30;;;;;;5066184;28;20143;-81
2023/09/14 00:15:34;;;;;;;1.27;0.50;;;14.90;92.40;;;;;;5046445;28;20579;-81
2023/09/14 00:18:01;;;;;;;0.65;0.38;;;14.80;90.60;;;;;;5048780;28;20523;-81
2023/09/14 00:20:30;;;;;;;0.57;0.50;;;14.80;93.30;;;;;;5051191;28;20127;-81
2023/09/14 00:22:57;;;;;;;0.50;0.40;;;14.80;99.00;;;;;;5084296;28;20101;-81
2023/09/14 00:25:25;;;;;;;0.75;0.38;;;14.80;97.70;;;;;;5067244;28;20475;-81
2023/09/14 00:27:52;;;;;;;0.60;0.40;;;14.80;99.90;;;;;;5064022;28;20484;-81
2023/09/14 00:30:20;;;;;;;1.13;0.43;;;14.80;99.90;;;;;;5050955;28;20053;-81
2023/09/14 00:32:49;;;;;;;0.68;0.43;;;14.80;99.90;;;;;;5054054;28;20059;-82
2023/09/14 00:35:18;;;;;;;0.75;0.30;;;14.80;99.90;;;;;;5083479;28;20040;-81
2023/09/14 00:37:45;;;;;;;1.13;0.50;;;14.80;98.10;;;;;;5067470;28;20436;-81
2023/09/14 00:40:12;;;;;;;0.30;0.30;;;14.70;91.90;;;;;;5050818;28;20071;-81
2023/09/14 00:42:50;;;;;;;0.60;0.60;;;14.70;98.00;;;;;;5050933;28;20052;-82
2023/09/14 00:45:19;;;;;;;0.70;0.47;;;14.70;98.80;;;;;;5051030;28;20616;-82
2023/09/14 00:47:57;;;;;;;0.80;0.50;;;14.60;96.40;;;;;;5070541;28;20058;-81
2023/09/14 00:50:24;;;;;;;0.35;0.30;;;14.60;98.80;;;;;;5070699;28;20048;-81
2023/09/14 00:52:58;;;;;;;0.70;0.40;;;14.60;95.60;;;;;;5071042;28;20171;-82
2023/09/14 00:55:25;;;;;;;0.30;0.28;;;14.60;93.60;;;;;;5070691;28;20058;-81
2023/09/14 00:57:52;;;;;;;0.38;0.28;;;14.50;99.90;;;;;;5071395;28;20052;-82
2023/09/14 01:00:20;;;;;;;0.63;0.38;;;14.50;99.90;;;;;;5053156;28;20709;-81
2023/09/14 01:02:50;;;;;;;0.40;0.28;;;14.50;99.90;;;;;;5068414;28;20052;-81
2023/09/14 01:05:18;;;;;;;0.68;0.50;;;14.50;99.90;;;;;;5050978;28;20051;-81
2023/09/14 01:07:44;;;;;;;0.30;0.30;;;14.50;99.90;;;;;;5086283;28;20640;-81
2023/09/14 01:10:15;;;;;;;0.60;0.40;;;14.50;99.90;;;;;;5070384;28;20052;-81
2023/09/14 01:12:48;;;;;;;0.52;0.40;;;14.50;99.90;;;;;;5055244;28;20048;-81
2023/09/14 01:15:19;;;;;;;;;;;14.50;99.90;;;;;;5053568;28;20048;-81
2023/09/14 01:18:11;;;;;;;0.38;0.22;;;14.40;99.90;;;;;;5088584;28;20689;-82
2023/09/14 01:21:07;;;;;;;0.73;0.40;;;14.40;99.90;;;;;;5063090;28;20052;-83
2023/09/14 01:23:55;;;;;;;0.63;0.50;;;14.40;99.90;;;;;;5085781;28;20102;-81
2023/09/14 01:26:23;;;;;;;0.40;0.35;;;14.30;99.90;;;;;;5069511;28;20044;-82
2023/09/14 01:28:49;;;;;;;0.50;0.40;;;14.30;99.90;;;;;;5054289;28;20125;-82
2023/09/14 01:31:16;;;;;;;0.20;0.20;;;14.30;99.90;;;;;;5064337;28;20154;-82
2023/09/14 01:33:48;;;;;;;0.55;0.30;;;14.30;99.90;;;;;;5042360;28;20045;-81
2023/09/14 01:36:41;;;;;;;0.30;0.30;;;14.20;99.90;;;;;;5077207;28;20060;-81
2023/09/14 01:39:08;;;;;;;0.35;0.30;;;14.20;99.90;;;;;;5053247;28;20051;-81
2023/09/14 01:41:35;;;;;;;0.70;0.32;;;14.20;99.90;;;;;;5071503;28;20052;-82
2023/09/14 01:44:02;;;;;;;0.20;0.20;;;14.20;99.90;;;;;;5087116;28;20543;-81
2023/09/14 01:46:32;;;;;;;0.40;0.30;;;14.10;99.90;;;;;;5080250;28;20040;-81
2023/09/14 01:48:59;;;;;;;0.30;0.30;;;14.10;99.90;;;;;;5051021;28;20048;-81
2023/09/14 01:51:26;;;;;;;0.30;0.30;;;14.00;99.90;;;;;;5050462;28;20392;-81
2023/09/14 01:53:53;;;;;;;0.75;0.40;;;14.00;99.90;;;;;;5082219;28;20058;-81
2023/09/14 01:56:19;;;;;;;0.70;0.47;;;14.00;99.90;;;;;;5086462;28;20083;-80
2023/09/14 01:58:46;;;;;;;0.95;0.30;;;14.00;99.90;;;;;;5086839;28;20051;-81
2023/09/14 02:01:14;;;;;;;1.05;0.63;;;13.90;99.90;;;;;;5085437;28;20052;-81
2023/09/14 02:03:41;;;;;;;0.40;0.40;;;13.90;99.90;;;;;;5088245;28;20079;-81
2023/09/14 02:06:07;;;;;;;0.35;0.35;;;13.90;99.90;;;;;;5086575;28;20067;-83
2023/09/14 02:08:35;;;;;;;0.75;0.40;;;13.90;99.90;;;;;;5086445;28;20044;-80
2023/09/14 02:11:03;;;;;;;0.43;0.30;;;13.90;99.90;;;;;;5069690;28;20627;-81
2023/09/14 02:13:30;;;;;;;0.45;0.30;;;13.90;99.90;;;;;;5086618;28;20349;-81
2023/09/14 02:15:58;;;;;;;0.63;0.40;;;13.80;99.90;;;;;;5052679;28;20044;-80
2023/09/14 02:18:25;;;;;;;0.38;0.32;;;13.80;99.90;;;;;;5069732;28;20056;-81
2023/09/14 02:20:52;;;;;;;0.60;0.40;;;13.80;99.90;;;;;;5052876;28;20047;-80
2023/09/14 02:23:18;;;;;;;0.60;0.40;;;13.80;99.90;;;;;;5069900;28;20552;-80
2023/09/14 02:25:45;;;;;;;0.70;0.50;;;13.80;99.90;;;;;;5069318;28;20055;-81
2023/09/14 02:28:13;;;;;;;0.90;0.70;;;13.80;99.90;;;;;;5069625;28;20082;-81
2023/09/14 02:30:41;;;;;;;1.05;0.80;;;13.80;99.90;;;;;;5067908;28;20639;-81
2023/09/14 02:33:08;;;;;;;0.60;0.40;;;13.70;99.90;;;;;;5052857;28;20103;-81
2023/09/14 02:35:36;;;;;;;0.88;0.40;;;13.70;99.90;;;;;;5069083;28;20072;-81
2023/09/14 02:38:03;;;;;;;1.05;0.50;;;13.70;99.90;;;;;;5069459;28;20109;-80
2023/09/14 02:40:30;;;;;;;0.52;0.40;;;13.70;99.90;;;;;;5069275;28;20130;-81
2023/09/14 02:42:57;;;;;;;0.45;0.38;;;13.70;99.90;;;;;;5049081;28;20056;-81
2023/09/14 02:45:25;;;;;;;1.75;0.30;;;13.60;99.90;;;;;;5064876;28;20053;-81
2023/09/14 02:47:52;;;;;;;0.82;0.45;;;13.60;99.90;;;;;;5065841;28;20056;-80
2023/09/14 02:50:19;;;;;;;0.38;0.35;;;13.60;99.90;;;;;;5068620;28;20055;-81
2023/09/14 02:52:45;;;;;;;0.32;0.30;;;13.60;99.90;;;;;;5085775;28;20060;-81
2023/09/14 02:55:13;;;;;;;0.25;0.25;;;13.60;99.90;;;;;;5053176;28;20139;-81
2023/09/14 02:57:40;;;;;;;0.80;0.40;;;13.50;99.90;;;;;;5086326;28;20055;-80
2023/09/14 03:00:08;;;;;;;0.50;0.50;;;13.50;99.90;;;;;;5051444;28;20084;-81
2023/09/14 03:02:35;;;;;;;0.63;0.30;;;13.50;99.90;;;;;;5052243;28;20052;-82
2023/09/14 03:05:02;;;;;;;0.40;0.40;;;13.40;99.90;;;;;;5085321;28;20056;-81
2023/09/14 03:07:29;;;;;;;0.40;0.40;;;13.40;99.90;;;;;;5068911;28;20148;-81
2023/09/14 03:09:56;;;;;;;1.67;0.40;;;13.40;99.90;;;;;;5086567;28;20040;-82
2023/09/14 03:12:23;;;;;;;0.70;0.55;;;13.30;99.90;;;;;;5085054;28;20060;-81
2023/09/14 03:14:50;;;;;;;0.85;0.30;;;13.30;99.90;;;;;;5050995;28;20343;-81
2023/09/14 03:17:17;;;;;;;0.95;0.40;;;13.30;99.90;;;;;;5085696;28;20136;-80
2023/09/14 03:19:44;;;;;;;0.50;0.40;;;13.30;99.90;;;;;;5068290;28;20048;-81
2023/09/14 03:22:11;;;;;;;2.47;0.50;;;13.30;99.90;;;;;;5085702;28;20040;-80
2023/09/14 03:24:38;;;;;;;1.38;0.43;;;13.30;99.90;;;;;;5085321;28;20044;-80
2023/09/14 03:27:05;;;;;;;1.48;0.60;;;13.30;99.90;;;;;;5067684;28;20044;-81
2023/09/14 03:29:32;;;;;;;0.60;0.30;;;13.30;99.90;;;;;;5050885;28;20083;-80
2023/09/14 03:32:00;;;;;;;1.67;0.40;;;13.30;99.90;;;;;;5067995;28;20051;-81
2023/09/14 03:34:28;;;;;;;0.68;0.45;;;13.30;99.90;;;;;;5068306;28;20136;-80
2023/09/14 03:36:55;;;;;;;1.02;0.40;;;13.30;99.90;;;;;;5068461;28;20043;-81
2023/09/14 03:39:22;;;;;;;0.50;0.40;;;13.30;99.90;;;;;;5068475;28;20117;-81
2023/09/14 03:41:49;;;;;;;0.40;0.40;;;13.30;99.90;;;;;;5084723;28;20052;-80
2023/09/14 03:44:16;;;;;;;0.50;0.38;;;13.20;99.90;;;;;;5084812;28;20163;-80
2023/09/14 03:46:43;;;;;;;0.22;0.22;;;13.20;99.90;;;;;;5050722;28;20139;-81
2023/09/14 03:49:10;;;;;;;1.15;0.60;;;13.20;99.90;;;;;;5068534;28;20044;-81
2023/09/14 03:51:37;;;;;;;0.32;0.20;;;13.20;99.90;;;;;;5067854;28;20150;-81
2023/09/14 03:54:04;;;;;;;0.75;0.40;;;13.20;99.90;;;;;;5051676;28;20131;-80
2023/09/14 03:56:34;;;;;;;0.68;0.50;;;13.20;99.90;;;;;;5084782;28;20086;-81
2023/09/14 03:59:01;;;;;;;0.38;0.30;;;13.20;99.90;;;;;;5051761;28;20059;-80
2023/09/14 04:01:28;;;;;;;0.65;0.35;;;13.20;99.90;;;;;;5066845;28;20144;-80
2023/09/14 04:03:55;;;;;;;0.50;0.40;;;13.20;99.90;;;;;;5067655;28;20044;-81
2023/09/14 04:06:22;;;;;;;0.60;0.40;;;13.20;99.90;;;;;;5051165;28;20054;-80
2023/09/14 04:08:49;;;;;;;0.40;0.28;;;13.20;99.90;;;;;;5068035;28;20121;-80
2023/09/14 04:11:17;;;;;;;2.63;0.40;;;13.20;99.90;;;;;;5067810;28;20044;-80
2023/09/14 04:13:43;;;;;;;0.40;0.30;;;13.20;99.90;;;;;;5067958;28;20109;-79
2023/09/14 04:16:12;;;;;;;1.73;0.60;;;13.20;99.90;;;;;;5066674;28;20433;-81
2023/09/14 04:18:39;;;;;;;0.50;0.40;;;13.20;99.90;;;;;;5051431;28;20048;-81
2023/09/14 04:21:06;;;;;;;0.70;0.28;;;13.20;99.90;;;;;;5084970;28;20136;-80
2023/09/14 04:23:33;;;;;;;1.00;0.40;;;13.30;99.90;;;;;;5055343;28;20050;-80
2023/09/14 04:26:00;;;;;;;0.40;0.35;;;13.40;99.90;;;;;;5088444;28;20044;-80
2023/09/14 04:28:27;;;;;;;0.55;0.38;;;13.40;99.90;;;;;;5055629;28;20102;-80
2023/09/14 04:30:57;;;;;;;0.68;0.30;;;13.40;99.90;;;;;;5069671;28;20056;-81
2023/09/14 04:33:25;;;;;;;0.30;0.30;;;13.50;99.90;;;;;;5054363;28;20062;-80
2023/09/14 04:35:57;;;;;;;0.85;0.60;;;13.50;99.90;;;;;;5070200;28;20044;-80
2023/09/14 04:38:24;;;;;;;0.32;0.22;;;13.60;99.90;;;;;;5070259;28;20044;-81
2023/09/14 04:40:52;;;;;;;0.50;0.40;;;13.60;99.90;;;;;;5045837;28;20048;-80
2023/09/14 04:43:22;;;;;;;0.40;0.40;;;13.60;99.90;;;;;;5053768;28;20070;-80
2023/09/14 04:45:49;;;;;;;0.20;0.20;;;13.60;99.90;;;;;;5066365;28;20067;-80
2023/09/14 04:48:16;;;;;;;0.52;0.30;;;13.60;99.90;;;;;;5048713;28;20418;-80
2023/09/14 04:50:43;;;;;;;0.40;0.40;;;13.60;99.90;;;;;;5051590;28;20064;-80
2023/09/14 04:53:10;;;;;;;0.70;0.40;;;13.60;99.90;;;;;;5084741;28;20110;-80
2023/09/14 04:55:36;;;;;;;1.13;0.55;;;13.60;99.90;;;;;;5069026;28;20462;-80
2023/09/14 04:58:06;;;;;;;0.68;0.40;;;13.60;99.90;;;;;;5083854;28;20040;-81
2023/09/14 05:00:33;;;;;;;0.80;0.57;;;13.50;99.90;;;;;;5066769;28;20071;-82
2023/09/14 05:03:05;;;;;;;0.82;0.50;;;13.50;99.90;;;;;;5063344;28;20048;-82
2023/09/14 05:05:32;;;;;;;0.55;0.40;;;13.50;99.90;;;;;;5062534;28;20052;-82
2023/09/14 05:07:59;;;;;;;0.77;0.47;;;13.40;99.90;;;;;;5048911;28;20573;-82
2023/09/14 05:10:27;;;;;;;0.52;0.30;;;13.40;99.90;;;;;;5042533;28;20133;-82
2023/09/14 05:12:53;;;;;;;0.50;0.40;;;13.30;99.90;;;;;;5079244;28;20044;-82
2023/09/14 05:15:21;;;;;;;0.43;0.43;;;13.30;99.90;;;;;;5058914;28;20052;-82
2023/09/14 05:17:48;;;;;;;0.82;0.40;;;13.30;99.90;;;;;;5071623;28;20135;-83
2023/09/14 05:20:15;;;;;;;0.20;0.20;;;13.20;99.90;;;;;;5073616;28;20565;-83
2023/09/14 05:22:42;;;;;;;0.40;0.30;;;13.20;99.90;;;;;;5046580;28;20047;-83
2023/09/14 05:25:09;;;;;;;0.57;0.40;;;13.20;99.90;;;;;;5042845;28;20048;-82
2023/09/14 05:27:40;;;;;;;0.40;0.28;;;13.20;99.90;;;;;;5042072;28;20052;-82
2023/09/14 05:30:10;;;;;;;0.30;0.30;;;13.10;99.90;;;;;;5060236;28;20713;-82
2023/09/14 05:32:39;;;;;;;0.28;0.28;;;13.10;99.90;;;;;;5013727;28;1356266;-84
2023/09/14 05:35:06;;;;;;;0.50;0.32;;;13.10;99.90;;;;;;5065431;28;20052;-81
2023/09/14 05:37:34;;;;;;;0.38;0.30;;;13.10;99.90;;;;;;5083194;28;20112;-81
2023/09/14 05:40:00;;;;;;;0.47;0.40;;;13.10;99.90;;;;;;5050091;28;20051;-81
2023/09/14 05:42:29;;;;;;;0.38;0.30;;;13.10;99.90;;;;;;5053007;28;20503;-82
2023/09/14 05:44:56;;;;;;;0.85;0.30;;;13.10;99.90;;;;;;5083263;28;20079;-80
2023/09/14 05:47:23;;;;;;;0.40;0.28;;;13.10;99.90;;;;;;5067102;28;20056;-82
2023/09/14 05:49:50;;;;;;;0.30;0.30;;;13.10;99.90;;;;;;5066568;28;20130;-82
2023/09/14 05:52:17;;;;;;;0.65;0.35;;;13.20;99.90;;;;;;5083208;28;20052;-82
2023/09/14 05:54:44;;;;;;;0.20;0.20;;;13.20;99.90;;;;;;5050479;28;20536;-82
2023/09/14 05:57:13;;;;;;;0.10;0.10;;;13.20;99.90;;;;;;5070805;28;20052;-87
2023/09/14 05:59:41;;;;;;;0.10;0.10;;;13.30;99.90;;;;;;5070016;28;20415;-82
2023/09/14 06:02:08;;;;;;;0.55;0.22;;;13.40;99.90;;;;;;5079983;28;20052;-80
2023/09/14 06:04:35;;;;;;;0.28;0.20;;;13.40;99.90;;;;;;5059604;28;20093;-80
2023/09/14 06:07:02;;;;;;;0.20;0.20;;;13.40;99.90;;;;;;5049051;28;20400;-81
2023/09/14 06:09:32;;;;;;;0.38;0.25;;;13.50;99.90;;;;;;5046123;28;20479;-80
2023/09/14 06:12:01;;;;;;;0.45;0.25;;;13.50;99.90;;;;;;5060413;28;20044;-81
2023/09/14 06:14:27;;;;;;;0.60;0.40;;;13.60;99.90;;;;;;5053649;28;20517;-78
2023/09/14 06:16:54;;;;;;;0.38;0.28;;;13.60;99.90;;;;;;5049806;28;20113;-76
2023/09/14 06:19:22;;;;;;;1.23;0.65;;;13.60;99.90;;;;;;5076989;28;20048;-76
2023/09/14 06:21:49;;;;;;;0.55;0.30;;;13.70;99.90;;;;;;5083844;28;20152;-77
2023/09/14 06:24:17;;;;;;;0.43;0.32;;;13.80;99.90;;;;;;5083695;28;20087;-77
2023/09/14 06:26:44;;;;;;;0.22;0.22;;;13.90;99.90;;;;;;5065596;28;20566;-76
2023/09/14 06:29:16;;;;;;;0.30;0.30;;;14.00;99.90;;;;;;5082887;28;20060;-77
2023/09/14 06:31:43;;;;;;;0.50;0.47;;;14.10;99.90;;;;;;5067134;28;20133;-77
2023/09/14 06:34:10;;;;;;;0.20;0.20;;;14.20;99.90;;;;;;5068813;28;20067;-77
2023/09/14 06:36:37;;;;;;;0.32;0.30;;;14.30;99.90;;;;;;5085574;28;20044;-77
2023/09/14 06:39:04;;;;;;;0.40;0.30;;;14.50;99.90;;;;;;5086542;28;20086;-76
2023/09/14 06:41:31;;;;;;;0.40;0.38;;;14.60;99.90;;;;;;5081396;28;20056;-76
2023/09/14 06:43:58;;;;;;;0.30;0.30;;;14.70;99.90;;;;;;5079605;28;20091;-76
2023/09/14 06:46:25;;;;;;;0.20;0.20;;;14.70;99.90;;;;;;5084174;28;20094;-77
2023/09/14 06:48:52;;;;;;;0.30;0.30;;;14.80;99.90;;;;;;5083722;28;20056;-76
2023/09/14 06:51:19;;;;;;;0.22;0.22;;;14.90;99.90;;;;;;5084083;28;20676;-77
2023/09/14 06:53:45;;;;;;;0.40;0.30;;;14.90;99.90;;;;;;5085269;28;20052;-76
2023/09/14 06:56:13;;;;;;;1.20;0.32;;;14.90;99.90;;;;;;5087070;28;20128;-77
2023/09/14 06:58:40;;;;;;;0.80;0.50;;;15.00;99.90;;;;;;5068394;28;20109;-77
2023/09/14 07:01:07;;;;;;;0.20;0.20;;;15.00;99.90;;;;;;5066701;28;20121;-76
2023/09/14 07:03:34;;;;;;;0.45;0.38;;;15.00;99.90;;;;;;5083118;28;20048;-76
2023/09/14 07:06:05;;;;;;;0.20;0.20;;;15.10;99.90;;;;;;5065334;28;20048;-76
2023/09/14 07:08:31;;;;;;;0.70;0.40;;;15.10;99.90;;;;;;5084043;28;20051;-75
2023/09/14 07:10:59;;;;;;;0.52;0.30;;;15.20;99.90;;;;;;5085892;28;20052;-77
2023/09/14 07:13:26;;;;;;;0.52;0.30;;;15.20;99.90;;;;;;5085392;28;20083;-76
2023/09/14 07:15:54;;;;;;;0.45;0.35;;;15.20;99.90;;;;;;5084243;28;20048;-76
2023/09/14 07:18:26;;;;;;;0.35;0.35;;;15.30;99.90;;;;;;5086007;28;20676;-76
2023/09/14 07:20:54;;;;;;;0.38;0.38;;;15.30;99.90;;;;;;5067902;28;20056;-76
2023/09/14 07:23:21;;;;;;;0.22;0.22;;;15.40;99.90;;;;;;5068389;28;20087;-76
2023/09/14 07:25:48;;;;;;;0.50;0.40;;;15.40;99.90;;;;;;5085870;28;20044;-76
2023/09/14 07:28:19;;;;;;;0.40;0.40;;;15.50;99.90;;;;;;5086769;28;20048;-76
2023/09/14 07:30:47;;;;;;;0.20;0.20;;;15.50;99.90;;;;;;5073025;28;20125;-76
2023/09/14 07:33:14;;;;;;;0.52;0.40;;;15.50;99.90;;;;;;5074452;28;20131;-76
2023/09/14 07:35:41;;;;;;;0.20;0.20;;;15.60;99.90;;;;;;5085889;28;20937;-76
2023/09/14 07:38:08;;;;;;;0.40;0.30;;;15.60;99.90;;;;;;5066835;28;20504;-76
2023/09/14 07:40:37;;;;;;;0.32;0.30;;;15.70;99.90;;;;;;5068537;28;20148;-86
2023/09/14 07:43:05;;;;;;;0.65;0.30;;;15.70;99.90;;;;;;5053085;28;20513;-85
2023/09/14 07:45:35;;;;;;;0.47;0.45;;;15.70;99.90;;;;;;5060749;28;20044;-81
2023/09/14 07:48:10;;;;;;;0.28;0.28;;;15.80;99.90;;;;;;5086443;28;20419;-86
2023/09/14 07:50:39;;;;;;;0.40;0.32;;;15.90;99.90;;;;;;5086097;28;20044;-84
2023/09/14 07:53:07;;;;;;;0.60;0.43;;;16.00;99.90;;;;;;5067259;28;20055;-84
2023/09/14 07:55:34;;;;;;;0.30;0.30;;;16.00;99.90;;;;;;5049481;28;20060;-85
2023/09/14 07:58:01;;;;;;;0.63;0.50;;;16.00;99.90;;;;;;5048389;28;20055;-85
2023/09/14 08:00:38;;;;;;;0.30;0.22;;;16.10;99.90;;;;;;5061560;28;20151;-86
2023/09/14 08:03:05;;;;;;;1.02;0.50;;;16.20;99.90;;;;;;5076969;28;20052;-81
2023/09/14 08:05:32;;;;;;;0.70;0.40;;;16.30;99.90;;;;;;5079538;28;20492;-82
2023/09/14 08:07:59;;;;;;;0.73;0.50;;;16.30;99.90;;;;;;5061071;28;20114;-84
2023/09/14 08:10:34;;;;;;;0.40;0.40;;;16.40;99.90;;;;;;5089939;28;20067;-83
2023/09/14 08:13:02;;;;;;;0.75;0.55;;;16.50;99.90;;;;;;5077351;28;20044;-83
2023/09/14 08:15:29;;;;;;;1.00;0.50;;;16.50;99.90;;;;;;5076878;28;20044;-82
2023/09/14 08:17:56;;;;;;;1.40;0.60;;;16.60;99.90;;;;;;5062348;28;20047;-84
2023/09/14 08:20:23;;;;;;;1.33;0.55;;;16.80;99.90;;;;;;5032357;28;20048;-84
2023/09/14 08:22:50;;;;;;;1.27;0.60;;;17.00;99.90;;;;;;5079804;28;20495;-82
2023/09/14 08:25:16;;;;;;;1.00;0.70;;;17.20;99.90;;;;;;5070143;28;20211;-80
2023/09/14 08:27:44;;;;;;;0.80;0.65;;;17.40;99.90;;;;;;5078146;28;20056;-81
2023/09/14 08:30:11;;;;;;;1.30;0.77;;;17.40;99.90;;;;;;5077963;28;20052;-82
2023/09/14 08:32:38;;;;;;;1.10;0.70;;;17.50;22.40;;;;;;5073629;28;20063;-81
2023/09/14 08:35:22;;;;;;;1.48;0.65;;;17.50;1.00;;;;;;5076907;28;20498;-82
2023/09/14 08:37:53;;;;;;;0.80;0.60;;;17.50;1.00;;;;;;5070343;28;20367;-82
2023/09/14 08:40:20;;;;;;;0.75;0.60;;;17.60;1.00;;;;;;5078000;28;20052;-82
2023/09/14 08:42:52;;;;;;;0.85;0.60;;;17.60;1.00;;;;;;5074768;28;20047;-81
2023/09/14 08:45:23;;;;;;;0.75;0.68;;;17.70;1.00;;;;;;5059428;28;20257;-82
2023/09/14 08:47:51;;;;;;;0.47;0.47;;;17.80;1.00;;;;;;5061088;28;20066;-81
2023/09/14 08:50:18;;;;;;;0.73;0.50;;;17.90;1.00;;;;;;5080558;28;20044;-82
2023/09/14 08:52:45;;;;;;;0.60;0.40;;;18.00;1.00;;;;;;5064889;28;20556;-81
2023/09/14 08:55:13;;;;;;;0.60;0.43;;;18.10;1.00;;;;;;5084462;28;20413;-81
2023/09/14 08:57:41;;;;;;;0.63;0.52;;;18.30;1.00;;;;;;5067828;28;20143;-79
2023/09/14 09:00:14;;;;;;;0.50;0.40;;;18.50;1.00;;;;;;5066540;28;20101;-81
2023/09/14 09:02:46;;;;;;;0.50;0.32;;;18.70;99.90;;;;;;5053244;28;20048;-82
2023/09/14 09:05:14;;;;;;;0.57;0.52;;;18.90;99.90;;;;;;5045123;28;20052;-80
2023/09/14 09:07:42;;;;;;;0.88;0.60;;;18.90;99.90;;;;;;5046785;28;20181;-80
2023/09/14 09:10:15;;;;;;;1.13;0.52;;;19.00;99.90;;;;;;5059944;28;20059;-81
2023/09/14 09:12:42;;;;;;;;;;;19.00;99.90;;;;;;5089587;28;20052;-81
2023/09/14 09:15:09;;;;;;;0.70;0.60;;;19.10;99.90;;;;;;5087922;28;19963;-81
2023/09/14 09:17:38;;;;;;;1.23;0.63;;;19.00;99.90;;;;;;5071294;28;20116;-81
2023/09/14 09:20:14;;;;;;;0.40;0.40;;;19.10;93.40;;;;;;5071307;28;20043;-82
2023/09/14 09:22:43;;;;;;;0.90;0.57;;;19.10;89.50;;;;;;5087671;28;20044;-81
2023/09/14 09:25:11;;;;;;;1.08;0.70;;;19.20;63.40;;;;;;5067425;28;20134;-82
2023/09/14 09:27:41;;;;;;;0.95;0.52;;;19.30;33.40;;;;;;5067664;28;20478;-81
2023/09/14 09:30:10;;;;;;;1.65;0.88;;;19.40;16.30;;;;;;5061137;28;20079;-81
2023/09/14 09:32:38;;;;;;;0.57;0.52;;;19.60;1.00;;;;;;5050406;28;20053;-81
2023/09/14 09:35:15;;;;;;;0.60;0.40;;;19.80;99.90;;;;;;5069313;28;20348;-82
2023/09/14 09:37:42;;;;;;;0.85;0.50;;;19.90;99.90;;;;;;5085689;28;20516;-81
2023/09/14 09:40:14;;;;;;;1.05;0.60;;;20.10;99.90;;;;;;5067547;28;20128;-82
2023/09/14 09:42:41;;;;;;;0.55;0.40;;;20.20;1.00;;;;;;5051503;28;20580;-81
2023/09/14 09:45:09;;;;;;;0.50;0.40;;;20.30;99.90;;;;;;5047931;28;20052;-82
2023/09/14 09:47:36;;;;;;;2.47;0.70;;;20.40;38.30;;;;;;5031162;28;20044;-81
2023/09/14 09:50:10;;;;;;;1.42;0.60;;;20.60;1.00;;;;;;5030637;28;20098;-82
2023/09/14 09:52:38;;;;;;;1.90;0.63;;;20.70;99.90;;;;;;5033600;28;20076;-81
2023/09/14 09:55:06;;;;;;;1.08;0.50;;;20.80;19.10;;;;;;5049696;28;20052;-81
2023/09/14 09:57:37;;;;;;;0.73;0.60;;;21.00;96.70;;;;;;5033753;28;20063;-82
2023/09/14 10:00:14;;;;;;;0.60;0.50;;;21.20;99.90;;;;;;5049265;28;20057;-82
2023/09/14 10:02:41;;;;;;;0.88;0.60;;;21.30;1.00;;;;;;5048038;28;20055;-82
2023/09/14 10:05:08;;;;;;;0.85;0.60;;;21.50;1.00;;;;;;5048629;28;20052;-83
2023/09/14 10:07:42;;;;;;;0.50;0.50;;;21.50;1.00;;;;;;5069532;28;20048;-82
2023/09/14 10:10:09;;;;;;;1.10;0.68;;;21.50;1.00;;;;;;5070500;28;20052;-82
2023/09/14 10:12:40;;;;;;;0.80;0.60;;;21.50;1.00;;;;;;5052143;28;20051;-82
2023/09/14 10:15:08;;;;;;;1.30;0.50;;;21.40;1.00;;;;;;5065372;28;20095;-82
2023/09/14 10:17:35;;;;;;;0.82;0.57;;;21.50;1.00;;;;;;5068081;28;20052;-82
2023/09/14 10:20:08;;;;;;;1.15;0.68;;;21.50;1.00;;;;;;5051692;28;20056;-83
2023/09/14 10:22:36;;;;;;;0.55;0.45;;;21.50;1.00;;;;;;5070113;28;20559;-82
2023/09/14 10:25:05;;;;;;;0.45;0.40;;;21.50;1.00;;;;;;5066006;28;20113;-81
2023/09/14 10:27:33;;;;;;;0.80;0.60;;;21.70;1.00;;;;;;5083327;28;20139;-82
2023/09/14 10:30:01;;;;;;;0.75;0.50;;;21.80;99.90;;;;;;5084992;28;20541;-82
2023/09/14 10:32:29;;;;;;;0.40;0.30;;;21.90;99.90;;;;;;5085922;28;20411;-82
2023/09/14 10:34:57;;;;;;;1.00;0.60;;;21.70;99.90;;;;;;5050210;28;20075;-83
2023/09/14 10:37:33;;;;;;;0.65;0.50;;;21.50;99.90;;;;;;5064760;28;20493;-82
2023/09/14 10:40:01;;;;;;;1.30;0.50;;;21.50;99.90;;;;;;5059800;28;20189;-83
2023/09/14 10:42:29;;;;;;;0.40;0.40;;;21.50;99.90;;;;;;5045923;28;20084;-83
2023/09/14 10:44:56;;;;;;;0.50;0.50;;;21.60;99.90;;;;;;5060903;28;20511;-83
2023/09/14 10:47:25;;;;;;;1.20;0.63;;;21.50;99.90;;;;;;5050221;28;20564;-83
2023/09/14 10:49:52;;;;;;;1.30;0.73;;;21.50;99.90;;;;;;5053235;28;20529;-83
2023/09/14 10:52:26;;;;;;;0.45;0.40;;;21.50;99.90;;;;;;5059457;28;20048;-82
2023/09/14 10:54:53;;;;;;;0.20;0.20;;;21.60;99.90;;;;;;5078496;28;20133;-83
2023/09/14 10:57:24;;;;;;;0.47;0.40;;;21.80;99.90;;;;;;5066552;28;20048;-84
2023/09/14 10:59:57;;;;;;;0.70;0.40;;;21.80;99.90;;;;;;5069593;28;20610;-82
2023/09/14 11:02:41;;;;;;;0.70;0.40;;;21.80;99.90;;;;;;5043224;28;20101;-82
2023/09/14 11:05:24;;;;;;;0.63;0.40;;;21.80;99.90;;;;;;5067266;28;20163;-84
2023/09/14 11:08:00;;;;;;;0.35;0.35;;;21.80;99.90;;;;;;5072650;28;20044;-79
2023/09/14 11:10:27;;;;;;;0.65;0.35;;;22.00;99.90;;;;;;5044810;28;20048;-79
2023/09/14 11:13:21;;;;;;;0.40;0.40;;;22.10;99.90;;;;;;5059362;28;20079;-79
2023/09/14 11:16:16;;;;;;;0.80;0.60;;;22.00;99.90;;;;;;5071905;28;20059;-79
2023/09/14 11:18:44;;;;;;;0.40;0.30;;;22.00;99.90;;;;;;5068428;28;20056;-79
2023/09/14 11:21:31;;;;;;;1.00;0.50;;;21.90;99.90;;;;;;5077690;28;20121;-79
2023/09/14 11:24:04;;;;;;;0.82;0.55;;;21.80;99.90;;;;;;5090895;28;20052;-79
2023/09/14 11:26:32;;;;;;;0.82;0.40;;;21.80;99.90;;;;;;5051658;28;20066;-79
2023/09/14 11:29:01;;;;;;;0.43;0.40;;;21.80;99.90;;;;;;5060816;28;20056;-79
2023/09/14 11:31:33;;;;;;;0.47;0.40;;;22.10;99.90;;;;;;5072134;28;20055;-79
2023/09/14 11:34:21;;;;;;;0.40;0.30;;;22.40;99.90;;;;;;5055901;28;20137;-79
2023/09/14 11:36:52;;;;;;;0.50;0.35;;;22.60;99.90;;;;;;5054507;28;20149;-80
2023/09/14 11:39:23;;;;;;;0.50;0.40;;;22.70;99.90;;;;;;5075137;28;20802;-79
2023/09/14 11:41:54;;;;;;;0.40;0.40;;;22.70;99.90;;;;;;5049092;28;20116;-79
2023/09/14 11:44:28;;;;;;;0.45;0.32;;;23.00;99.90;;;;;;5076385;28;20616;-80
2023/09/14 11:47:12;;;;;;;0.40;0.40;;;23.30;99.90;;;;;;5053855;28;20044;-79
2023/09/14 11:49:41;;;;;;;0.25;0.22;;;23.70;99.90;;;;;;5041801;28;20641;-79
2023/09/14 11:52:10;;;;;;;0.55;0.50;;;24.10;99.90;;;;;;5061295;28;20055;-80
2023/09/14 11:54:37;;;;;;;0.50;0.50;;;24.50;99.90;;;;;;5059892;28;20132;-79
2023/09/14 11:57:05;;;;;;;0.82;0.60;;;24.60;99.90;;;;;;5059211;28;20044;-79
2023/09/14 11:59:32;;;;;;;0.90;0.55;;;24.80;99.90;;;;;;5077283;28;20066;-79
2023/09/14 12:02:00;;;;;;;1.33;0.80;;;25.00;99.90;;;;;;5076028;28;20639;-80
2023/09/14 12:04:28;;;;;;;0.85;0.80;;;25.00;99.90;;;;;;5076218;28;20060;-80
2023/09/14 12:06:55;;;;;;;0.63;0.50;;;25.00;99.90;;;;;;5035413;28;20548;-80
2023/09/14 12:09:39;;;;;;;1.40;0.93;;;25.00;99.90;;;;;;5041654;28;20138;-79
2023/09/14 12:12:09;;;;;;;0.70;0.50;;;25.30;99.90;;;;;;5065104;28;20060;-80
2023/09/14 12:14:40;;;;;;;0.88;0.60;;;25.50;99.90;;;;;;5040715;28;20054;-81
2023/09/14 12:17:24;;;;;;;0.88;0.60;;;25.50;99.90;;;;;;5047945;28;20048;-80
2023/09/14 12:19:56;;;;;;;1.17;0.70;;;25.50;99.90;;;;;;5059676;28;20056;-80
2023/09/14 12:22:24;;;;;;;0.70;0.60;;;25.60;99.90;;;;;;5075997;28;20333;-79
2023/09/14 12:24:51;;;;;;;0.50;0.43;;;25.70;99.90;;;;;;5043971;28;20557;-79
2023/09/14 12:27:18;;;;;;;0.80;0.60;;;25.80;99.90;;;;;;5059492;28;20098;-79
2023/09/14 12:29:46;;;;;;;0.43;0.43;;;26.20;99.90;;;;;;5075969;28;20160;-78
2023/09/14 12:32:14;;;;;;;0.40;0.40;;;26.50;99.90;;;;;;5061746;28;20060;-79
2023/09/14 12:34:41;;;;;;;0.70;0.45;;;27.00;99.90;;;;;;5076971;28;20088;-79
2023/09/14 12:37:09;;;;;;;0.38;0.35;;;27.30;99.90;;;;;;5061295;28;20159;-79
2023/09/14 12:39:36;;;;;;;0.30;0.30;;;27.50;99.90;;;;;;5076755;28;20063;-79
2023/09/14 12:42:03;;;;;;;0.80;0.50;;;27.80;99.90;;;;;;5078951;28;20051;-79
2023/09/14 12:44:30;;;;;;;0.80;0.50;;;27.40;99.90;;;;;;5080377;28;20067;-78
2023/09/14 12:46:57;;;;;;;0.50;0.40;;;27.50;99.90;;;;;;5078904;28;20050;-78
2023/09/14 12:49:24;;;;;;;0.40;0.40;;;27.50;99.90;;;;;;5081312;28;20052;-79
2023/09/14 12:51:51;;;;;;;0.40;0.40;;;27.50;99.90;;;;;;5077207;28;20371;-79
2023/09/14 12:54:25;;;;;;;0.32;0.32;;;27.50;99.90;;;;;;5095414;28;20048;-78
2023/09/14 12:56:52;;;;;;;0.70;0.52;;;27.50;99.90;;;;;;5081377;28;20047;-79